Time;durP1;ratioP1;P1;durP2;ratioP2;P2;SDS_P1;SDS_P2;PMS_P1;PMS_P2;Temp;Humidity;BMP_temperature;BMP_pressure;BME280_temperature;BME280_humidity;BME280_pressure;Samples;Min_cycle;Max_cycle;Signal;HPM_P1;HPM_P2
2024/03/21 00:00:11;;;;;;;19.97;15.47;;;11.10;99.90;;;;;;5011617;28;20607;-73
2024/03/21 00:02:46;;;;;;;19.67;15.63;;;11.00;99.90;;;;;;5011590;28;20180;-73
2024/03/21 00:05:16;;;;;;;21.33;15.60;;;11.00;99.90;;;;;;5011466;28;20574;-73
2024/03/21 00:07:47;;;;;;;21.10;14.80;;;11.00;99.90;;;;;;5011674;28;20255;-73
2024/03/21 00:10:13;;;;;;;20.60;15.53;;;11.00;99.90;;;;;;5011767;28;20168;-73
2024/03/21 00:12:40;;;;;;;21.30;16.03;;;10.90;99.90;;;;;;5010687;28;20195;-73
2024/03/21 00:15:09;;;;;;;21.43;16.10;;;10.90;99.90;;;;;;5009904;28;20207;-73
2024/03/21 00:17:35;;;;;;;22.27;16.10;;;10.80;99.90;;;;;;5011574;28;20236;-74
2024/03/21 00:20:10;;;;;;;21.77;16.10;;;10.70;99.90;;;;;;5011500;28;20192;-73
2024/03/21 00:22:40;;;;;;;20.63;16.07;;;10.60;99.90;;;;;;5011614;28;20176;-73
2024/03/21 00:25:07;;;;;;;22.70;16.40;;;10.60;99.90;;;;;;5011369;28;20188;-73
2024/03/21 00:27:34;;;;;;;20.67;16.60;;;10.60;99.90;;;;;;5011843;28;20215;-73
2024/03/21 00:30:00;;;;;;;21.37;16.37;;;10.50;99.90;;;;;;5012015;28;20202;-73
2024/03/21 00:32:26;;;;;;;19.50;16.13;;;10.50;99.90;;;;;;5011539;28;20178;-73
2024/03/21 00:34:52;;;;;;;21.43;16.83;;;10.40;99.90;;;;;;5011712;28;20184;-73
2024/03/21 00:37:18;;;;;;;20.67;15.70;;;10.40;99.90;;;;;;5012642;28;20172;-74
2024/03/21 00:39:48;;;;;;;22.17;14.23;;;10.30;99.90;;;;;;5014117;28;20175;-73
2024/03/21 00:42:14;;;;;;;18.17;14.87;;;10.30;99.90;;;;;;5011149;28;20160;-73
2024/03/21 00:44:39;;;;;;;19.87;14.90;;;10.20;99.90;;;;;;5009641;28;20204;-73
2024/03/21 00:47:05;;;;;;;21.67;16.17;;;10.10;99.90;;;;;;5011226;28;20176;-73
2024/03/21 00:49:31;;;;;;;22.07;15.67;;;10.10;99.90;;;;;;5011117;28;20200;-73
2024/03/21 00:51:56;;;;;;;24.70;16.83;;;10.00;99.90;;;;;;5011296;28;20259;-73
2024/03/21 00:54:22;;;;;;;20.60;16.80;;;10.00;99.90;;;;;;5011059;28;20176;-73
2024/03/21 00:56:48;;;;;;;24.17;16.23;;;10.00;99.90;;;;;;5010730;28;20179;-73
2024/03/21 00:59:14;;;;;;;19.77;16.37;;;10.00;99.90;;;;;;5011010;28;20263;-72
2024/03/21 01:01:40;;;;;;;23.47;16.70;;;10.00;99.90;;;;;;5011022;28;20237;-73
2024/03/21 01:04:06;;;;;;;20.87;15.60;;;10.00;99.90;;;;;;5010938;28;20172;-73
2024/03/21 01:06:32;;;;;;;22.33;16.20;;;10.10;99.90;;;;;;5010637;28;20330;-73
2024/03/21 01:08:58;;;;;;;19.87;15.37;;;10.10;99.90;;;;;;5010858;28;20525;-73
2024/03/21 01:11:24;;;;;;;23.30;15.93;;;10.10;99.90;;;;;;5010460;28;20176;-73
2024/03/21 01:13:49;;;;;;;25.50;17.53;;;10.10;99.90;;;;;;5010770;28;20251;-73
2024/03/21 01:16:15;;;;;;;23.37;16.47;;;10.00;99.90;;;;;;5011016;28;20688;-74
2024/03/21 01:18:41;;;;;;;19.07;17.03;;;10.00;99.90;;;;;;5010872;28;20172;-73
2024/03/21 01:21:11;;;;;;;24.63;16.97;;;10.00;99.90;;;;;;5010802;28;20404;-74
2024/03/21 01:23:37;;;;;;;25.87;17.83;;;10.00;99.90;;;;;;5013473;28;20212;-73
2024/03/21 01:26:03;;;;;;;23.57;16.70;;;10.10;99.90;;;;;;5014403;28;20188;-73
2024/03/21 01:28:30;;;;;;;24.80;17.27;;;10.10;99.90;;;;;;5014269;28;20255;-73
2024/03/21 01:30:55;;;;;;;22.63;17.40;;;10.10;99.90;;;;;;5014522;28;20180;-73
2024/03/21 01:33:21;;;;;;;25.67;19.17;;;10.20;99.90;;;;;;5014246;28;20177;-73
2024/03/21 01:35:46;;;;;;;25.90;19.03;;;10.20;99.90;;;;;;5013938;28;20207;-73
2024/03/21 01:38:13;;;;;;;30.90;19.67;;;10.30;99.90;;;;;;5014347;28;20262;-74
2024/03/21 01:40:39;;;;;;;25.33;18.70;;;10.30;99.90;;;;;;5014242;28;20704;-73
2024/03/21 01:43:25;;;;;;;21.83;18.93;;;10.30;99.90;;;;;;5014535;28;20534;-73
2024/03/21 01:46:09;;;;;;;27.43;18.70;;;10.40;99.90;;;;;;5013671;28;20212;-73
2024/03/21 01:48:56;;;;;;;25.60;19.30;;;10.40;99.90;;;;;;5013855;28;20236;-73
2024/03/21 01:51:26;;;;;;;27.50;21.10;;;10.40;99.90;;;;;;5013635;28;20284;-73
2024/03/21 01:53:52;;;;;;;29.50;21.00;;;10.50;99.90;;;;;;5014051;28;20635;-73
2024/03/21 01:56:18;;;;;;;24.33;20.70;;;10.50;99.90;;;;;;5012479;28;20206;-73
2024/03/21 01:58:44;;;;;;;28.20;20.80;;;10.60;99.90;;;;;;5014287;28;20215;-73
2024/03/21 02:01:27;;;;;;;25.60;21.83;;;10.70;99.90;;;;;;5014182;28;20648;-73
2024/03/21 02:03:54;;;;;;;32.60;21.73;;;10.70;99.90;;;;;;5014651;28;20180;-73
2024/03/21 02:06:20;;;;;;;31.13;21.90;;;10.70;99.90;;;;;;5013361;28;20204;-74
2024/03/21 02:08:46;;;;;;;29.10;22.27;;;10.80;99.90;;;;;;5013850;28;20172;-73
2024/03/21 02:11:12;;;;;;;29.27;22.97;;;10.80;99.90;;;;;;5013561;28;20618;-73
2024/03/21 02:13:38;;;;;;;26.90;21.83;;;10.90;99.90;;;;;;5014043;28;20176;-73
2024/03/21 02:16:04;;;;;;;29.40;22.40;;;10.90;99.90;;;;;;5013359;28;20197;-74
2024/03/21 02:18:30;;;;;;;27.80;22.07;;;10.90;99.90;;;;;;5013356;28;20191;-73
2024/03/21 02:20:55;;;;;;;26.83;21.57;;;11.00;99.90;;;;;;5013682;28;20215;-73
2024/03/21 02:23:21;;;;;;;29.23;21.23;;;11.00;99.90;;;;;;5013540;28;20176;-73
2024/03/21 02:25:47;;;;;;;28.77;20.93;;;11.00;99.90;;;;;;5013419;28;20350;-73
2024/03/21 02:28:13;;;;;;;29.20;21.40;;;11.10;99.90;;;;;;5013843;28;20187;-74
2024/03/21 02:30:39;;;;;;;24.50;20.53;;;11.00;99.90;;;;;;5013679;28;20447;-73
2024/03/21 02:33:05;;;;;;;24.43;20.63;;;11.00;99.90;;;;;;5011890;28;20179;-73
2024/03/21 02:35:31;;;;;;;25.73;20.73;;;11.00;99.90;;;;;;5012595;28;20579;-75
2024/03/21 02:37:57;;;;;;;24.20;19.60;;;11.10;99.90;;;;;;5013225;28;20330;-73
2024/03/21 02:40:23;;;;;;;23.37;20.23;;;11.10;99.90;;;;;;5013928;28;20279;-74
2024/03/21 02:42:48;;;;;;;24.57;19.40;;;11.20;99.90;;;;;;5013785;28;20191;-73
2024/03/21 02:45:14;;;;;;;26.83;19.57;;;11.20;99.90;;;;;;5013546;28;20188;-74
2024/03/21 02:47:39;;;;;;;24.00;20.53;;;11.10;99.90;;;;;;5013568;28;20226;-73
2024/03/21 02:50:05;;;;;;;28.73;20.63;;;11.20;99.90;;;;;;5013204;28;20183;-75
2024/03/21 02:52:31;;;;;;;28.77;20.53;;;11.10;99.90;;;;;;5013370;28;20719;-73
2024/03/21 02:54:57;;;;;;;24.47;19.77;;;11.10;99.90;;;;;;5012801;28;20192;-73
2024/03/21 02:57:22;;;;;;;27.97;20.00;;;11.10;99.90;;;;;;5012752;28;20612;-74
2024/03/21 02:59:48;;;;;;;28.00;20.77;;;11.00;99.90;;;;;;5012754;28;20259;-73
2024/03/21 03:02:15;;;;;;;30.90;21.33;;;11.00;99.90;;;;;;5012937;28;20169;-73
2024/03/21 03:04:40;;;;;;;28.07;21.97;;;11.00;99.90;;;;;;5012129;28;20258;-73
2024/03/21 03:07:06;;;;;;;26.30;21.23;;;11.00;99.90;;;;;;4993219;28;20172;-73
2024/03/21 03:09:32;;;;;;;27.47;21.67;;;11.00;99.90;;;;;;4993519;28;20697;-74
2024/03/21 03:11:57;;;;;;;30.57;23.40;;;10.90;99.90;;;;;;4993368;28;20177;-73
2024/03/21 03:14:23;;;;;;;32.47;23.63;;;10.80;99.90;;;;;;4993285;28;20173;-73
2024/03/21 03:16:48;;;;;;;28.07;24.33;;;10.80;99.90;;;;;;4993605;28;20183;-73
2024/03/21 03:19:14;;;;;;;31.73;24.10;;;10.80;99.90;;;;;;4993568;28;20172;-73
2024/03/21 03:21:39;;;;;;;32.00;23.50;;;10.70;99.90;;;;;;5011434;28;20204;-73
2024/03/21 03:24:05;;;;;;;34.07;24.37;;;10.70;99.90;;;;;;5014407;28;20638;-73
2024/03/21 03:26:31;;;;;;;33.43;24.80;;;10.70;99.90;;;;;;5014143;28;20291;-73
2024/03/21 03:28:57;;;;;;;33.37;25.70;;;10.70;99.90;;;;;;5012823;28;20244;-73
2024/03/21 03:31:23;;;;;;;34.77;26.27;;;10.70;99.90;;;;;;5012452;28;20171;-73
2024/03/21 03:36:34;;;;;;;39.83;27.50;;;10.70;99.90;;;;;;4991883;28;20195;-74
2024/03/21 03:39:00;;;;;;;37.20;28.97;;;10.80;99.90;;;;;;5012806;28;20176;-74
2024/03/21 03:41:25;;;;;;;45.03;30.33;;;10.80;99.90;;;;;;5012431;28;20207;-74
2024/03/21 03:43:51;;;;;;;39.73;29.70;;;10.90;99.90;;;;;;5012577;28;20543;-74
2024/03/21 03:46:17;;;;;;;42.77;28.77;;;10.90;99.90;;;;;;5012024;28;20195;-73
2024/03/21 03:48:42;;;;;;;47.40;30.33;;;10.90;99.90;;;;;;5012973;28;20169;-74
2024/03/21 03:51:08;;;;;;;40.90;30.67;;;10.90;99.90;;;;;;5012571;28;20180;-73
2024/03/21 03:53:33;;;;;;;44.77;33.13;;;10.90;99.90;;;;;;5012052;28;20329;-73
2024/03/21 03:55:59;;;;;;;49.60;33.23;;;10.90;99.90;;;;;;5012801;28;20204;-74
2024/03/21 03:58:25;;;;;;;50.53;32.70;;;10.90;99.90;;;;;;5013206;28;20180;-74
2024/03/21 04:00:58;;;;;;;46.00;32.27;;;10.80;99.90;;;;;;5013401;28;20625;-73
2024/03/21 04:03:25;;;;;;;47.97;33.87;;;10.90;99.90;;;;;;5013659;28;20543;-73
2024/03/21 04:05:58;;;;;;;49.37;35.37;;;10.90;99.90;;;;;;5045879;23;20219;-73
2024/03/21 04:08:24;;;;;;;52.43;35.53;;;10.90;99.90;;;;;;5031290;28;20187;-73
2024/03/21 04:10:50;;;;;;;49.87;36.07;;;10.90;99.90;;;;;;5030426;28;20664;-72
2024/03/21 04:13:16;;;;;;;54.00;38.33;;;10.90;99.90;;;;;;5031413;28;20182;-73
2024/03/21 04:15:42;;;;;;;57.20;35.90;;;10.90;99.90;;;;;;5031015;28;20672;-73
2024/03/21 04:18:08;;;;;;;56.33;38.30;;;11.00;99.90;;;;;;5031448;28;20554;-73
2024/03/21 04:20:33;;;;;;;50.90;36.83;;;11.00;99.90;;;;;;5031273;28;20218;-73
2024/03/21 04:22:59;;;;;;;52.90;34.80;;;11.00;99.90;;;;;;5031066;28;20176;-73
2024/03/21 04:25:25;;;;;;;51.43;35.73;;;11.00;99.90;;;;;;5030910;28;20190;-73
2024/03/21 04:27:50;;;;;;;54.53;34.90;;;11.10;99.90;;;;;;5016813;28;20172;-73
2024/03/21 04:30:16;;;;;;;49.30;34.60;;;11.10;99.90;;;;;;5011547;28;20656;-73
2024/03/21 04:32:42;;;;;;;53.97;35.67;;;11.10;99.90;;;;;;5011346;28;20248;-73
2024/03/21 04:35:09;;;;;;;56.50;37.60;;;11.10;99.90;;;;;;5011350;28;20222;-73
2024/03/21 04:37:34;;;;;;;52.10;36.27;;;11.20;99.90;;;;;;5011696;28;20175;-73
2024/03/21 04:40:00;;;;;;;52.73;35.40;;;11.20;99.90;;;;;;5010524;28;20547;-72
2024/03/21 04:42:26;;;;;;;57.57;36.37;;;11.20;99.90;;;;;;5011309;28;20180;-73
2024/03/21 04:44:51;;;;;;;53.60;36.13;;;11.20;99.90;;;;;;5011147;28;20172;-73
2024/03/21 04:47:17;;;;;;;53.87;36.97;;;11.30;99.90;;;;;;5020126;28;20735;-73
2024/03/21 04:49:42;;;;;;;54.27;36.90;;;11.30;99.90;;;;;;5031190;28;20191;-73
2024/03/21 04:52:10;;;;;;;54.13;35.83;;;11.30;99.90;;;;;;5031175;28;20250;-73
2024/03/21 04:54:35;;;;;;;53.33;36.60;;;11.30;99.90;;;;;;5025118;28;20175;-73
2024/03/21 04:57:01;;;;;;;49.77;35.47;;;11.40;99.90;;;;;;5011240;28;20203;-72
2024/03/21 04:59:28;;;;;;;51.73;37.10;;;11.30;99.90;;;;;;5014931;28;20302;-73
2024/03/21 05:01:55;;;;;;;49.70;35.37;;;11.30;99.90;;;;;;5015092;28;20291;-73
2024/03/21 05:04:21;;;;;;;53.43;35.70;;;11.30;99.90;;;;;;5014824;28;20177;-73
2024/03/21 05:06:46;;;;;;;51.60;34.73;;;11.30;99.90;;;;;;5015060;28;20682;-73
2024/03/21 05:09:12;;;;;;;52.57;36.17;;;11.30;99.90;;;;;;5014910;28;20178;-73
2024/03/21 05:11:37;;;;;;;56.57;35.50;;;11.30;99.90;;;;;;5014833;28;20184;-73
2024/03/21 05:14:03;;;;;;;52.80;37.20;;;11.30;99.90;;;;;;5014889;28;20184;-73
2024/03/21 05:16:30;;;;;;;48.77;34.73;;;11.30;99.90;;;;;;5014380;28;20208;-72
2024/03/21 05:18:56;;;;;;;49.47;35.10;;;11.30;99.90;;;;;;5014818;28;20248;-73
2024/03/21 05:21:21;;;;;;;50.57;35.03;;;11.30;99.90;;;;;;5014795;28;20281;-73
2024/03/21 05:23:47;;;;;;;47.70;33.03;;;11.30;99.90;;;;;;5031266;28;20207;-73
2024/03/21 05:26:13;;;;;;;57.70;35.00;;;11.30;99.90;;;;;;5034103;28;20191;-73
2024/03/21 05:28:38;;;;;;;55.40;35.97;;;11.20;99.90;;;;;;5030515;28;20579;-73
2024/03/21 05:31:22;;;;;;;54.83;33.37;;;11.20;99.90;;;;;;5014539;28;20179;-72
2024/03/21 05:33:48;;;;;;;56.47;33.80;;;11.00;99.90;;;;;;5014484;28;20226;-73
2024/03/21 05:36:14;;;;;;;56.20;33.87;;;11.00;99.90;;;;;;5014193;28;20192;-73
2024/03/21 05:38:40;;;;;;;55.87;33.57;;;10.90;99.90;;;;;;5014677;28;20661;-72
2024/03/21 05:41:06;;;;;;;53.23;33.60;;;10.90;99.90;;;;;;5014361;28;20246;-73
2024/03/21 05:43:32;;;;;;;57.63;35.33;;;10.80;99.90;;;;;;5013952;28;20255;-73
2024/03/21 05:45:58;;;;;;;57.43;34.80;;;10.70;99.90;;;;;;5013878;28;20283;-73
2024/03/21 05:48:23;;;;;;;51.87;34.03;;;10.70;99.90;;;;;;5013489;28;20339;-73
2024/03/21 05:50:49;;;;;;;52.13;34.00;;;10.60;99.90;;;;;;5023687;28;20176;-73
2024/03/21 05:53:14;;;;;;;52.43;31.43;;;10.50;99.90;;;;;;5033374;28;20510;-73
2024/03/21 05:55:40;;;;;;;54.27;30.83;;;10.50;99.90;;;;;;5032875;28;20206;-73
2024/03/21 05:58:05;;;;;;;52.10;31.73;;;10.40;99.90;;;;;;5033338;28;20171;-72
2024/03/21 06:00:31;;;;;;;48.17;30.50;;;10.40;99.90;;;;;;5033069;28;20610;-72
2024/03/21 06:02:57;;;;;;;46.70;29.73;;;10.40;99.90;;;;;;5033267;28;20172;-71
2024/03/21 06:05:22;;;;;;;49.67;30.87;;;10.40;99.90;;;;;;5032197;28;20261;-72
2024/03/21 06:07:48;;;;;;;48.80;30.37;;;10.40;99.90;;;;;;5033174;28;20168;-72
2024/03/21 06:10:13;;;;;;;44.73;31.13;;;10.40;99.90;;;;;;5031820;28;20698;-72
2024/03/21 06:12:41;;;;;;;53.70;31.97;;;10.50;99.90;;;;;;5032794;28;20172;-73
2024/03/21 06:15:07;;;;;;;49.00;31.93;;;10.50;99.90;;;;;;5032733;28;20183;-73
2024/03/21 06:17:33;;;;;;;49.87;30.90;;;10.60;99.90;;;;;;5031460;28;20178;-74
2024/03/21 06:19:58;;;;;;;47.73;29.53;;;10.70;99.90;;;;;;5013119;28;20207;-72
2024/03/21 06:22:24;;;;;;;46.00;29.67;;;10.80;99.90;;;;;;5013019;28;20212;-72
2024/03/21 06:24:49;;;;;;;46.17;29.90;;;10.80;99.90;;;;;;5012674;28;20490;-73
2024/03/21 06:27:15;;;;;;;44.37;30.07;;;10.90;99.90;;;;;;5013201;28;20173;-73
2024/03/21 06:29:41;;;;;;;48.27;30.93;;;10.90;99.90;;;;;;5016169;28;20179;-72
2024/03/21 06:32:06;;;;;;;43.87;28.50;;;11.00;99.90;;;;;;5015706;28;20206;-72
2024/03/21 06:34:32;;;;;;;43.87;28.73;;;11.10;99.90;;;;;;5014300;28;20180;-73
2024/03/21 06:36:58;;;;;;;42.87;27.77;;;11.10;99.90;;;;;;5019304;28;20227;-73
2024/03/21 06:39:23;;;;;;;42.20;27.03;;;11.10;99.90;;;;;;5029358;28;20249;-72
2024/03/21 06:41:49;;;;;;;48.33;28.67;;;11.10;99.90;;;;;;5016993;28;20204;-73
2024/03/21 06:44:14;;;;;;;51.53;29.90;;;11.30;99.90;;;;;;5012482;28;20226;-74
2024/03/21 06:46:40;;;;;;;41.50;27.23;;;11.40;99.90;;;;;;5028238;28;20258;-74
2024/03/21 06:49:07;;;;;;;41.47;26.80;;;11.40;99.90;;;;;;5032358;28;20164;-74
2024/03/21 06:51:32;;;;;;;41.20;25.97;;;11.50;99.90;;;;;;5031893;28;20601;-73
2024/03/21 06:53:58;;;;;;;41.53;26.80;;;11.60;99.90;;;;;;5032049;28;20254;-72
2024/03/21 06:56:24;;;;;;;43.13;27.27;;;11.80;99.90;;;;;;5031566;28;20508;-73
2024/03/21 06:58:49;;;;;;;42.33;27.23;;;12.10;99.90;;;;;;5013469;28;20179;-73
2024/03/21 07:01:16;;;;;;;36.83;24.33;;;12.30;99.90;;;;;;5012981;28;20669;-72
2024/03/21 07:03:42;;;;;;;39.23;26.00;;;12.50;99.90;;;;;;5013188;28;20187;-73
2024/03/21 07:06:08;;;;;;;36.33;24.13;;;12.60;99.90;;;;;;5011852;28;20216;-72
2024/03/21 07:08:33;;;;;;;31.73;22.60;;;12.90;99.90;;;;;;5011888;28;20716;-70
2024/03/21 07:10:59;;;;;;;30.27;22.10;;;13.30;99.90;;;;;;5012301;28;20404;-72
2024/03/21 07:13:24;;;;;;;32.83;21.57;;;13.30;99.90;;;;;;5012797;28;20186;-73
2024/03/21 07:15:50;;;;;;;33.83;23.70;;;13.40;99.90;;;;;;5012888;28;20192;-72
2024/03/21 07:18:15;;;;;;;35.23;22.23;;;13.20;99.90;;;;;;5011934;28;20626;-73
2024/03/21 07:20:41;;;;;;;37.20;24.00;;;13.10;99.90;;;;;;5021824;28;20195;-73
2024/03/21 07:23:07;;;;;;;34.53;22.00;;;12.90;99.90;;;;;;5031311;28;20214;-71
2024/03/21 07:25:36;;;;;;;36.53;23.27;;;12.70;99.90;;;;;;5030895;28;20187;-71
2024/03/21 07:28:03;;;;;;;36.23;25.67;;;12.70;99.90;;;;;;5014273;28;20516;-71
2024/03/21 07:30:29;;;;;;;35.27;25.83;;;12.60;99.90;;;;;;5014148;28;20259;-71
2024/03/21 07:32:55;;;;;;;33.80;25.50;;;12.50;99.90;;;;;;5021111;28;20219;-73
2024/03/21 07:35:20;;;;;;;36.77;27.07;;;12.40;99.90;;;;;;5011182;28;20288;-73
2024/03/21 07:37:46;;;;;;;38.37;26.33;;;12.40;99.90;;;;;;5028649;28;20656;-73
2024/03/21 07:40:12;;;;;;;39.93;29.17;;;12.40;99.90;;;;;;5011599;28;20259;-73
2024/03/21 07:42:38;;;;;;;37.93;27.70;;;12.50;99.90;;;;;;5018970;28;20525;-73
2024/03/21 07:45:05;;;;;;;40.00;27.30;;;12.50;99.90;;;;;;5030692;28;20245;-74
2024/03/21 07:47:31;;;;;;;45.47;29.27;;;12.50;99.90;;;;;;5029824;28;20171;-73
2024/03/21 07:49:56;;;;;;;37.93;26.53;;;12.50;99.90;;;;;;5030955;28;20172;-73
2024/03/21 07:52:22;;;;;;;38.17;27.80;;;12.60;99.90;;;;;;5030604;28;20194;-74
2024/03/21 07:54:48;;;;;;;41.20;28.30;;;12.60;99.90;;;;;;5021798;28;20267;-72
2024/03/21 07:57:14;;;;;;;35.03;26.47;;;12.40;99.90;;;;;;5011460;28;20181;-73
2024/03/21 07:59:40;;;;;;;41.10;28.27;;;12.30;99.90;;;;;;5012287;28;20172;-73
2024/03/21 08:02:06;;;;;;;42.90;27.80;;;12.20;99.90;;;;;;5019542;28;20216;-73
2024/03/21 08:04:33;;;;;;;42.60;29.17;;;12.10;99.90;;;;;;5018622;28;20277;-73
2024/03/21 08:06:59;;;;;;;40.93;27.60;;;12.10;99.90;;;;;;5010387;28;20208;-73
2024/03/21 08:09:24;;;;;;;41.33;29.60;;;12.00;99.90;;;;;;5030377;28;20529;-73
2024/03/21 08:11:50;;;;;;;41.10;28.33;;;12.10;99.90;;;;;;5031022;28;20182;-74
2024/03/21 08:14:16;;;;;;;39.37;28.17;;;12.10;99.90;;;;;;5027887;28;20191;-72
2024/03/21 08:16:42;;;;;;;38.80;27.23;;;12.10;99.90;;;;;;5029867;28;20203;-73
2024/03/21 08:19:07;;;;;;;34.80;25.80;;;12.10;99.90;;;;;;5030586;28;20188;-72
2024/03/21 08:21:33;;;;;;;36.47;25.30;;;12.10;99.90;;;;;;5015711;28;20624;-73
2024/03/21 08:23:58;;;;;;;40.80;25.43;;;12.20;99.90;;;;;;5029644;28;20221;-73
2024/03/21 08:26:24;;;;;;;35.53;25.67;;;12.30;99.90;;;;;;5029651;28;20206;-72
2024/03/21 08:28:50;;;;;;;34.53;23.43;;;12.40;99.90;;;;;;5030799;28;20175;-71
2024/03/21 08:31:15;;;;;;;30.57;22.47;;;12.60;99.90;;;;;;5012294;28;20194;-72
2024/03/21 08:33:41;;;;;;;29.93;21.03;;;12.70;99.90;;;;;;5015335;28;20238;-72
2024/03/21 08:36:06;;;;;;;27.70;21.00;;;12.70;99.90;;;;;;5022703;28;20608;-73
2024/03/21 08:38:33;;;;;;;30.30;20.70;;;12.70;99.90;;;;;;5021945;28;20544;-72
2024/03/21 08:40:58;;;;;;;24.17;19.20;;;12.60;99.90;;;;;;5035012;28;20583;-72
2024/03/21 08:43:24;;;;;;;26.73;19.17;;;12.60;99.90;;;;;;5034457;28;20259;-73
2024/03/21 08:45:52;;;;;;;24.57;19.97;;;12.60;99.90;;;;;;5025830;28;20191;-73
2024/03/21 08:48:17;;;;;;;23.30;18.63;;;12.60;99.90;;;;;;5023562;28;20730;-72
2024/03/21 08:50:47;;;;;;;26.23;19.67;;;12.60;99.90;;;;;;5015051;28;20259;-71
2024/03/21 08:53:15;;;;;;;23.23;17.93;;;12.70;99.90;;;;;;5014580;28;20238;-72
2024/03/21 08:55:40;;;;;;;22.57;18.00;;;12.60;99.90;;;;;;5013963;28;20238;-73
2024/03/21 08:58:06;;;;;;;24.10;18.40;;;12.70;99.90;;;;;;5014809;28;20259;-73
2024/03/21 09:00:32;;;;;;;22.63;17.83;;;12.90;99.90;;;;;;5014410;28;20199;-72
2024/03/21 09:02:59;;;;;;;22.67;17.57;;;12.90;99.90;;;;;;5014021;28;20176;-72
2024/03/21 09:05:25;;;;;;;20.47;15.80;;;13.00;99.90;;;;;;5014369;28;20211;-71
2024/03/21 09:07:50;;;;;;;22.50;16.97;;;13.00;99.90;;;;;;5014765;28;20657;-72
2024/03/21 09:10:16;;;;;;;21.10;16.73;;;12.90;99.90;;;;;;5014722;28;20176;-71
2024/03/21 09:12:42;;;;;;;21.03;17.17;;;13.00;99.90;;;;;;5014368;28;20164;-72
2024/03/21 09:15:13;;;;;;;22.00;15.50;;;13.00;99.90;;;;;;5014157;28;20219;-70
2024/03/21 09:17:39;;;;;;;18.57;14.53;;;13.00;99.90;;;;;;5014813;28;20176;-72
2024/03/21 09:20:07;;;;;;;20.53;14.70;;;13.00;99.90;;;;;;5034078;28;20194;-72
2024/03/21 09:22:36;;;;;;;19.77;14.90;;;12.90;99.90;;;;;;5024174;28;20641;-73
2024/03/21 09:25:03;;;;;;;23.00;14.63;;;13.00;99.90;;;;;;5023530;28;20199;-72
2024/03/21 09:27:28;;;;;;;17.97;14.50;;;13.20;99.90;;;;;;5013891;28;20176;-71
2024/03/21 09:29:54;;;;;;;15.50;13.27;;;13.40;99.90;;;;;;5014108;28;20183;-75
2024/03/21 09:32:20;;;;;;;17.70;13.07;;;13.70;99.90;;;;;;5013657;28;20175;-72
2024/03/21 09:34:47;;;;;;;15.30;13.07;;;13.90;99.90;;;;;;5013284;28;20180;-73
2024/03/21 09:37:14;;;;;;;13.37;11.87;;;14.10;99.90;;;;;;5014082;28;20195;-74
2024/03/21 09:39:39;;;;;;;15.23;12.10;;;14.40;99.90;;;;;;5013754;28;20222;-75
2024/03/21 09:42:05;;;;;;;13.27;10.97;;;14.60;99.90;;;;;;5013904;28;20196;-74
2024/03/21 09:44:31;;;;;;;15.57;11.77;;;14.80;99.90;;;;;;5030844;28;20223;-72
2024/03/21 09:47:00;;;;;;;12.20;10.73;;;14.70;99.90;;;;;;5033163;28;20202;-75
2024/03/21 09:49:25;;;;;;;13.40;11.37;;;14.70;99.90;;;;;;5016938;28;20283;-72
2024/03/21 09:51:51;;;;;;;17.07;12.20;;;14.90;99.90;;;;;;5027995;28;20184;-74
2024/03/21 09:54:17;;;;;;;13.83;11.50;;;14.90;99.90;;;;;;5020038;28;20203;-74
2024/03/21 09:56:43;;;;;;;13.03;11.27;;;14.90;99.90;;;;;;5025461;28;20204;-73
2024/03/21 09:59:15;;;;;;;12.60;11.30;;;15.20;99.90;;;;;;5027893;28;20172;-75
2024/03/21 10:01:41;;;;;;;12.30;10.93;;;15.40;99.90;;;;;;5033121;28;20336;-74
2024/03/21 10:04:10;;;;;;;14.70;11.20;;;15.60;99.90;;;;;;5031788;28;20261;-73
2024/03/21 10:06:48;;;;;;;12.70;10.70;;;15.70;99.90;;;;;;5124641;23;20782;-89
2024/03/21 10:09:15;;;;;;;15.07;11.87;;;15.70;99.90;;;;;;5050767;28;20202;-88
2024/03/21 10:11:41;;;;;;;13.87;10.70;;;15.60;99.90;;;;;;5023730;28;20184;-89
2024/03/21 10:14:14;;;;;;;12.50;11.20;;;15.30;99.90;;;;;;5014007;28;20172;-89
2024/03/21 10:16:40;;;;;;;13.37;11.97;;;15.30;99.90;;;;;;5014948;28;20183;-89
2024/03/21 10:19:08;;;;;;;13.13;10.63;;;15.10;99.90;;;;;;5015250;28;20192;-90
2024/03/21 10:21:35;;;;;;;14.83;12.07;;;15.10;99.90;;;;;;5013799;28;20262;-89
2024/03/21 10:24:05;;;;;;;14.70;11.80;;;15.10;99.90;;;;;;4997219;28;20665;-90
2024/03/21 10:26:32;;;;;;;14.77;10.07;;;15.30;99.90;;;;;;5026328;28;20263;-89
2024/03/21 10:28:58;;;;;;;11.63;9.07;;;15.60;99.90;;;;;;5033378;28;20681;-90
2024/03/21 10:31:24;;;;;;;12.07;9.53;;;15.80;99.90;;;;;;5050161;28;20185;-90
2024/03/21 10:33:55;;;;;;;10.33;9.27;;;15.90;99.90;;;;;;5050074;28;20175;-91
2024/03/21 10:36:21;;;;;;;9.87;8.43;;;15.90;99.90;;;;;;5049833;28;20180;-91
2024/03/21 10:38:48;;;;;;;10.07;8.97;;;16.10;99.90;;;;;;5047812;28;20178;-90
2024/03/21 10:41:25;;;;;;;9.93;8.73;;;16.40;99.90;;;;;;5033944;28;20648;-90
2024/03/21 10:44:01;;;;;;;8.90;8.00;;;16.30;99.90;;;;;;5033263;28;20174;-89
2024/03/21 10:46:27;;;;;;;11.30;8.37;;;16.00;99.90;;;;;;5033066;28;20649;-88
2024/03/21 10:48:55;;;;;;;8.43;7.57;;;15.70;99.90;;;;;;5034532;28;20735;-90
2024/03/21 10:51:22;;;;;;;7.47;6.73;;;15.50;99.90;;;;;;5032663;28;20246;-88
2024/03/21 10:53:57;;;;;;;7.53;6.83;;;15.30;99.90;;;;;;5032333;28;20172;-90
2024/03/21 10:56:30;;;;;;;8.63;6.87;;;15.00;99.90;;;;;;5030549;28;20626;-90
2024/03/21 10:58:57;;;;;;;7.20;6.50;;;15.00;99.90;;;;;;5033176;28;20260;-90
2024/03/21 11:01:37;;;;;;;6.43;5.83;;;15.30;99.90;;;;;;5032499;28;20195;-87
2024/03/21 11:04:14;;;;;;;7.57;5.60;;;15.40;99.90;;;;;;5016287;28;20206;-89
2024/03/21 11:06:42;;;;;;;6.10;5.60;;;15.40;99.90;;;;;;5033118;28;20187;-89
2024/03/21 11:09:10;;;;;;;5.73;5.13;;;15.60;99.90;;;;;;5033999;28;20275;-89
2024/03/21 11:11:36;;;;;;;5.67;5.17;;;16.00;99.90;;;;;;5032372;28;20183;-88
2024/03/21 11:14:09;;;;;;;5.70;5.10;;;16.30;99.90;;;;;;5032810;28;20190;-89
2024/03/21 11:16:37;;;;;;;6.70;5.60;;;16.40;99.90;;;;;;5032435;28;20175;-89
2024/03/21 11:19:04;;;;;;;5.90;5.40;;;16.20;99.90;;;;;;5032488;28;20657;-89
2024/03/21 11:21:30;;;;;;;6.17;5.63;;;16.20;99.90;;;;;;5032326;28;20200;-90
2024/03/21 11:23:56;;;;;;;5.30;4.90;;;16.30;99.90;;;;;;5032263;28;20202;-89
2024/03/21 11:26:22;;;;;;;5.43;5.03;;;16.60;99.90;;;;;;5034898;28;20533;-88
2024/03/21 11:28:51;;;;;;;5.93;5.33;;;16.50;99.90;;;;;;5038268;28;20176;-88
2024/03/21 11:31:22;;;;;;;6.03;5.47;;;16.40;99.90;;;;;;5041319;28;20175;-88
2024/03/21 11:33:49;;;;;;;5.77;5.37;;;16.40;99.90;;;;;;5054157;28;20194;-89
2024/03/21 11:36:16;;;;;;;6.47;5.87;;;16.30;99.90;;;;;;5012597;28;20184;-89
2024/03/21 11:38:43;;;;;;;6.97;6.23;;;16.30;99.90;;;;;;5013595;28;20255;-90
2024/03/21 11:41:20;;;;;;;6.00;5.50;;;16.20;99.90;;;;;;5013839;28;20207;-89
2024/03/21 11:43:50;;;;;;;6.20;5.70;;;16.30;99.90;;;;;;5013395;28;20176;-88
2024/03/21 11:46:16;;;;;;;6.13;5.63;;;16.50;99.90;;;;;;5013579;28;20182;-88
2024/03/21 11:48:42;;;;;;;6.53;5.93;;;16.50;99.90;;;;;;5029318;28;20267;-89
2024/03/21 11:51:15;;;;;;;6.13;5.60;;;16.60;99.90;;;;;;5046902;28;20373;-90
2024/03/21 11:53:41;;;;;;;6.97;6.37;;;16.70;99.90;;;;;;5046547;28;20242;-89
2024/03/21 11:56:07;;;;;;;6.43;5.90;;;16.80;99.90;;;;;;5015548;28;20520;-90
2024/03/21 11:58:33;;;;;;;6.50;5.90;;;16.80;99.90;;;;;;5046263;28;20191;-88
2024/03/21 12:00:58;;;;;;;6.60;6.00;;;16.50;99.90;;;;;;5046599;28;20294;-89
2024/03/21 12:03:24;;;;;;;7.30;6.33;;;16.10;99.90;;;;;;5014635;28;20176;-92
2024/03/21 12:05:50;;;;;;;7.33;6.33;;;16.00;99.90;;;;;;5046847;28;20658;-91
2024/03/21 12:08:17;;;;;;;6.27;5.67;;;15.90;99.90;;;;;;5046487;28;20192;-89
2024/03/21 12:10:42;;;;;;;7.33;6.70;;;15.90;99.90;;;;;;5018109;28;20199;-89
2024/03/21 12:13:08;;;;;;;7.43;6.53;;;15.90;99.90;;;;;;5050877;28;20566;-89
2024/03/21 12:15:35;;;;;;;6.43;5.93;;;15.80;99.90;;;;;;5050362;28;20180;-89
2024/03/21 12:18:01;;;;;;;7.07;6.47;;;15.70;99.90;;;;;;5049811;28;20323;-89
2024/03/21 12:20:26;;;;;;;8.03;6.40;;;15.40;99.90;;;;;;5018575;28;20215;-90
2024/03/21 12:22:52;;;;;;;6.27;5.67;;;15.50;99.90;;;;;;5051282;28;20172;-88
2024/03/21 12:25:18;;;;;;;7.87;6.50;;;15.40;99.90;;;;;;5019587;28;20661;-88
2024/03/21 12:27:43;;;;;;;6.50;5.97;;;15.20;99.90;;;;;;5019707;28;20722;-89
2024/03/21 12:30:10;;;;;;;6.33;5.77;;;15.30;99.90;;;;;;5024337;28;20669;-88